• Join FlightAware (Why Join?)
  • Login
  • US Flag 
05:48AM EDT


 

Airport Tracker/Info


-or-


 

Live Flight TrackerFlight Track Log ✈ DAL3759 ✈ 19-Apr-2013 ✈ KATL - KTYS

Flight Track Log - Related Links

Times and Time Zones

All times are in EDT time to prevent confusion due to time zone crossing. See the DAL3759 flight status page for this flight to view local times or setup timezone preferences in your user account.

Time Position Orientation Groundspeed Altitude Reporting Facility
EDT Latitude Longitude Course Direction KTS MPH feet Rate Location/Type
11:13AM 33.6453 -84.4631 341° North 359 413 3,200  Level Atlanta Center
11:14AM 33.6431 -84.5428 268° West 292 336 5,200 2,100 Climbing Atlanta Center
11:15AM 33.6969 -84.6056 316° Northwest 302 348 7,500 2,160 Climbing Atlanta Center
11:16AM 33.8204 -84.1667 North  Level FlightAware Approximate
11:16AM 33.7825 -84.6311 346° North 323 372 9,600  Level Atlanta Center
11:17AM 33.8910 -84.2243 320° Northwest  Level FlightAware Approximate
11:17AM 33.8678 -84.6467 351° North 360 414 10,000  Level Atlanta Center
11:18AM 33.9635 -84.2818 337° Northwest  Level FlightAware Approximate
11:18AM 33.9722 -84.6675 351° North 405 466 10,100  Level Atlanta Center
11:19AM 34.0464 -84.3168 341° North  Level FlightAware Approximate
11:19AM 34.0764 -84.6733 357° North 396 456 10,900  Level Atlanta Center
11:20AM 34.1872 -84.6314 17° North 374 430 11,000  Climbing Atlanta Center
11:21AM 34.2878 -84.5919 18° North 374 430 11,000  Level Atlanta Center
11:22AM 34.3881 -84.5522 18° North 374 430 11,000  Level Atlanta Center
11:23AM 34.4883 -84.5125 18° North 380 437 11,100  Climbing Atlanta Center
11:24AM 34.5908 -84.4728 18° North 380 437 11,100  Level Atlanta Center
11:25AM 34.6931 -84.4328 18° North 388 447 11,100  Level Atlanta Center
11:26AM 34.8017 -84.3928 17° North 394 453 11,100  Level Atlanta Center
11:27AM 34.9000 -84.3528 18° North 402 463 11,100  Level Atlanta Center
11:28AM 35.0086 -84.3125 17° North 402 463 11,100  Level Atlanta Center
11:29AM 35.1192 -84.2697 18° North 402 463 11,100 -60 Level Atlanta Center
11:30AM 35.2278 -84.2269 18° North 407 468 11,000 -60 Descending Atlanta Center
11:31AM 35.3300 -84.1864 18° North 394 453 11,000 -420 Level Atlanta Center
11:32AM 35.4261 -84.1483 18° North 377 434 10,200 -1,500 Descending Atlanta Center
11:33AM 35.5181 -84.1103 19° North 361 415 8,000 -1,620 Descending Atlanta Center
11:34AM 35.5847 -84.0361 42° Northeast 326 375 7,000 -540 Descending Atlanta Center
11:35AM 35.6619 -83.9722 34° Northeast 326 375 7,000 -300 Level Atlanta Center
11:36AM 35.7392 -83.9133 32° Northeast 326 375 6,400 -1,020 Descending Atlanta Center
11:37AM 35.8100 -83.8519 35° Northeast 321 369 5,000 -840 Descending Atlanta Center
11:38AM 35.8744 -83.7978 34° Northeast 304 350 4,800 -240 Descending Atlanta Center
11:40AM 35.8381 -83.9104 248° West  Level Estimated